Time;durP1;ratioP1;P1;durP2;ratioP2;P2;SDS_P1;SDS_P2;PMS_P1;PMS_P2;Temp;Humidity;BMP_temperature;BMP_pressure;BME280_temperature;BME280_humidity;BME280_pressure;Samples;Min_cycle;Max_cycle;Signal;HPM_P1;HPM_P2
2023/10/17 00:02:03;;;;;;;11.73;5.07;;;7.10;99.90;;;;;;5093713;28;20419;-52
2023/10/17 00:04:32;;;;;;;9.27;4.30;;;7.10;99.90;;;;;;5093793;28;20410;-52
2023/10/17 00:06:58;;;;;;;11.63;5.00;;;7.10;99.90;;;;;;5093770;28;20408;-51
2023/10/17 00:09:25;;;;;;;10.93;4.77;;;7.20;99.90;;;;;;5094183;28;20519;-50
2023/10/17 00:14:34;;;;;;;10.33;5.73;;;7.20;99.90;;;;;;5093751;28;20586;-52
2023/10/17 00:17:03;;;;;;;11.60;6.37;;;7.20;99.90;;;;;;5094102;28;20407;-52
2023/10/17 00:19:31;;;;;;;11.53;5.63;;;7.30;99.90;;;;;;5093800;28;20434;-51
2023/10/17 00:22:04;;;;;;;8.73;5.80;;;7.30;99.90;;;;;;5094027;28;20453;-52
2023/10/17 00:24:29;;;;;;;10.03;5.07;;;7.30;99.90;;;;;;5093669;28;20493;-52
2023/10/17 00:26:55;;;;;;;10.33;5.10;;;7.30;99.90;;;;;;5094817;28;20911;-52
2023/10/17 00:29:21;;;;;;;6.90;4.23;;;7.40;99.90;;;;;;5095467;28;20212;-52
2023/10/17 00:31:46;;;;;;;8.47;4.03;;;7.40;99.90;;;;;;5094158;28;20185;-54
2023/10/17 00:34:21;;;;;;;16.13;4.60;;;7.30;99.90;;;;;;5095373;28;20272;-52
2023/10/17 00:39:46;;;;;;;9.40;4.70;;;7.30;99.90;;;;;;5071473;28;20954;-52
2023/10/17 00:42:28;;;;;;;9.47;4.77;;;7.40;99.90;;;;;;5094102;28;20430;-51
2023/10/17 00:44:55;;;;;;;9.97;3.93;;;7.40;99.90;;;;;;5093757;28;20413;-52
2023/10/17 00:47:22;;;;;;;9.57;3.93;;;7.40;99.90;;;;;;5094062;28;20498;-50
2023/10/17 00:49:49;;;;;;;7.47;3.97;;;7.30;99.90;;;;;;5093796;28;20858;-51
2023/10/17 00:52:26;;;;;;;6.67;3.93;;;7.40;99.90;;;;;;5093492;28;20434;-51
2023/10/17 00:54:56;;;;;;;6.10;3.50;;;7.40;99.90;;;;;;5093408;28;20890;-51
2023/10/17 00:57:26;;;;;;;9.93;3.70;;;7.30;99.90;;;;;;5093428;28;20398;-52
2023/10/17 00:59:53;;;;;;;10.50;3.97;;;7.30;99.90;;;;;;5093545;28;20433;-51
2023/10/17 01:02:23;;;;;;;12.57;4.23;;;7.40;99.90;;;;;;5093990;28;20417;-51
2023/10/17 01:04:56;;;;;;;6.17;3.27;;;7.30;99.90;;;;;;5093656;28;20405;-51
2023/10/17 01:07:34;;;;;;;6.80;3.27;;;7.40;99.90;;;;;;5093730;28;20894;-52
2023/10/17 01:10:10;;;;;;;5.67;3.20;;;7.40;99.90;;;;;;5096445;28;20462;-51
2023/10/17 01:13:00;;;;;;;6.20;3.63;;;7.40;99.90;;;;;;5097338;28;20877;-51
2023/10/17 01:15:27;;;;;;;5.97;3.93;;;7.40;99.90;;;;;;5097002;28;20902;-50
2023/10/17 01:17:54;;;;;;;4.90;3.40;;;7.50;99.90;;;;;;5097419;28;20414;-51
2023/10/17 01:20:20;;;;;;;6.60;3.40;;;7.50;99.90;;;;;;5096970;28;20484;-51
2023/10/17 01:22:47;;;;;;;4.93;3.50;;;7.50;99.90;;;;;;5097114;28;20414;-50
2023/10/17 01:25:46;;;;;;;6.80;3.93;;;7.50;99.90;;;;;;5096819;28;20989;-50
2023/10/17 01:28:06;;;;;;;8.83;4.30;;;7.50;99.90;;;;;;5094813;28;20446;-51
2023/10/17 01:30:32;;;;;;;5.80;3.87;;;7.50;99.90;;;;;;5096781;28;20948;-51
2023/10/17 01:32:58;;;;;;;8.07;4.20;;;7.40;99.90;;;;;;5097076;28;20425;-51
2023/10/17 01:35:24;;;;;;;8.43;3.63;;;7.50;99.90;;;;;;5097002;28;20605;-50
2023/10/17 01:37:52;;;;;;;5.67;3.60;;;7.40;99.90;;;;;;5096964;28;20422;-51
2023/10/17 01:40:27;;;;;;;5.93;4.20;;;7.40;99.90;;;;;;5097045;28;20512;-51
2023/10/17 01:42:57;;;;;;;13.43;4.17;;;7.50;99.90;;;;;;5095483;28;20429;-51
2023/10/17 01:45:23;;;;;;;8.07;3.57;;;7.50;99.90;;;;;;5097057;28;20517;-52
2023/10/17 01:47:51;;;;;;;5.23;3.30;;;7.50;99.90;;;;;;5096362;28;20508;-51
2023/10/17 01:50:18;;;;;;;5.50;3.30;;;7.50;99.90;;;;;;5096270;28;20466;-51
2023/10/17 01:52:45;;;;;;;4.47;3.60;;;7.50;99.90;;;;;;5096345;28;20500;-51
2023/10/17 01:55:15;;;;;;;7.50;3.10;;;7.50;99.90;;;;;;5096765;28;20446;-51
2023/10/17 01:57:43;;;;;;;9.83;3.50;;;7.50;99.90;;;;;;5096527;28;20417;-52
2023/10/17 02:02:56;;;;;;;6.90;3.20;;;7.50;99.90;;;;;;5096440;28;20459;-52
2023/10/17 02:05:23;;;;;;;10.47;3.57;;;7.50;99.90;;;;;;5096248;28;20421;-51
2023/10/17 02:07:48;;;;;;;7.80;3.30;;;7.50;99.90;;;;;;5095929;28;20417;-51
2023/10/17 02:10:28;;;;;;;9.90;3.83;;;7.50;99.90;;;;;;5096035;28;20460;-50
2023/10/17 02:12:54;;;;;;;7.60;3.63;;;7.50;99.90;;;;;;5094704;28;20230;-50
2023/10/17 02:15:20;;;;;;;13.60;4.10;;;7.50;99.90;;;;;;5096144;28;20446;-50
2023/10/17 02:17:47;;;;;;;3.90;3.00;;;7.50;99.90;;;;;;5095781;28;20612;-50
2023/10/17 02:20:29;;;;;;;4.50;3.00;;;7.50;99.90;;;;;;5095678;28;20473;-51
2023/10/17 02:23:02;;;;;;;5.90;3.37;;;7.60;99.90;;;;;;5096288;28;20420;-51
2023/10/17 02:25:32;;;;;;;8.43;3.47;;;7.60;99.90;;;;;;5096705;28;20466;-51
2023/10/17 02:27:59;;;;;;;4.80;3.30;;;7.50;99.90;;;;;;5096359;28;20437;-50
2023/10/17 02:30:24;;;;;;;8.03;3.80;;;7.50;99.90;;;;;;5095635;28;20975;-50
2023/10/17 02:32:56;;;;;;;5.13;2.90;;;7.50;99.90;;;;;;5095515;28;20516;-51
2023/10/17 02:35:28;;;;;;;10.67;3.47;;;7.50;99.90;;;;;;5095438;28;20598;-50
2023/10/17 02:37:57;;;;;;;8.23;3.13;;;7.50;99.90;;;;;;5095414;28;20920;-51
2023/10/17 02:40:23;;;;;;;9.97;3.80;;;7.60;99.90;;;;;;5095583;28;20453;-51
2023/10/17 02:42:52;;;;;;;6.17;4.20;;;7.60;99.90;;;;;;5095313;28;20908;-51
2023/10/17 02:45:24;;;;;;;8.70;3.77;;;7.60;99.90;;;;;;5095266;28;20407;-50
2023/10/17 02:47:53;;;;;;;10.63;4.00;;;7.60;99.90;;;;;;5095650;28;20486;-51
2023/10/17 02:50:41;;;;;;;5.13;3.67;;;7.60;99.90;;;;;;5095475;28;20607;-51
2023/10/17 02:53:12;;;;;;;11.30;3.60;;;7.60;99.90;;;;;;5095075;28;20569;-50
2023/10/17 02:55:38;;;;;;;11.00;3.50;;;7.70;99.90;;;;;;5095880;28;20410;-51
2023/10/17 02:58:03;;;;;;;10.40;3.50;;;7.70;99.90;;;;;;5096207;28;20418;-51
2023/10/17 03:00:35;;;;;;;10.50;3.47;;;7.70;99.90;;;;;;5095072;28;20755;-51
2023/10/17 03:03:12;;;;;;;12.20;3.57;;;7.70;99.90;;;;;;5095346;28;20163;-51
2023/10/17 03:05:41;;;;;;;10.53;3.40;;;7.70;99.90;;;;;;5095586;28;20882;-52
2023/10/17 03:08:10;;;;;;;6.30;3.30;;;7.70;99.90;;;;;;5095497;28;20441;-50
2023/10/17 03:10:40;;;;;;;5.00;3.17;;;7.70;99.90;;;;;;5095091;28;20465;-51
2023/10/17 03:13:39;;;;;;;4.47;2.63;;;7.70;99.90;;;;;;5094990;28;20887;-51
2023/10/17 03:16:25;;;;;;;4.90;3.30;;;7.70;99.90;;;;;;5094666;28;20407;-51
2023/10/17 03:18:51;;;;;;;9.40;3.80;;;7.80;99.90;;;;;;5094773;28;20472;-51
2023/10/17 03:21:18;;;;;;;11.90;3.47;;;7.80;99.90;;;;;;5094667;28;20415;-51
2023/10/17 03:23:49;;;;;;;3.97;2.77;;;7.70;99.90;;;;;;5094855;28;20195;-50
2023/10/17 03:26:19;;;;;;;8.00;2.77;;;7.80;99.90;;;;;;5095290;28;20471;-51
2023/10/17 03:28:48;;;;;;;6.07;2.97;;;7.80;99.90;;;;;;5094451;28;20927;-50
2023/10/17 03:31:20;;;;;;;8.63;3.00;;;7.70;99.90;;;;;;5094902;28;20877;-50
2023/10/17 03:33:50;;;;;;;6.30;2.70;;;7.70;99.90;;;;;;5094656;28;20407;-50
2023/10/17 03:41:45;;;;;;;12.70;3.50;;;7.70;99.90;;;;;;5094614;28;20856;-50
2023/10/17 03:44:15;;;;;;;6.03;3.30;;;7.70;99.90;;;;;;5094500;28;20445;-51
2023/10/17 03:46:48;;;;;;;5.70;3.43;;;7.70;99.90;;;;;;5094361;28;20601;-50
2023/10/17 03:49:18;;;;;;;5.80;3.53;;;7.80;99.90;;;;;;5094116;28;20544;-50
2023/10/17 03:51:47;;;;;;;7.70;3.27;;;7.70;99.90;;;;;;5094395;28;20846;-50
2023/10/17 03:54:18;;;;;;;8.10;3.50;;;7.80;99.90;;;;;;5094452;28;20421;-51
2023/10/17 03:56:55;;;;;;;9.30;3.40;;;7.80;99.90;;;;;;5094033;28;20544;-50
2023/10/17 03:59:31;;;;;;;8.07;3.20;;;7.80;99.90;;;;;;5095914;28;20804;-51
2023/10/17 04:01:58;;;;;;;5.83;3.20;;;7.80;99.90;;;;;;5097441;28;20410;-51
2023/10/17 04:04:35;;;;;;;8.23;3.23;;;7.70;99.90;;;;;;5096591;28;20433;-53
2023/10/17 04:07:02;;;;;;;7.90;3.30;;;7.70;99.90;;;;;;5096119;28;20410;-54
2023/10/17 04:09:31;;;;;;;6.33;3.40;;;7.70;99.90;;;;;;5096212;28;20467;-52
2023/10/17 04:12:03;;;;;;;6.93;3.60;;;7.70;99.90;;;;;;5095521;28;20463;-51
2023/10/17 04:14:50;;;;;;;5.43;3.77;;;7.80;99.90;;;;;;5095899;28;20414;-51
2023/10/17 04:17:16;;;;;;;4.87;3.67;;;7.70;99.90;;;;;;5095662;28;20454;-60
2023/10/17 04:19:42;;;;;;;8.57;3.77;;;7.70;99.90;;;;;;5095677;28;20796;-51
2023/10/17 04:22:08;;;;;;;8.00;3.60;;;7.70;99.90;;;;;;5095615;28;20425;-50
2023/10/17 04:24:34;;;;;;;8.50;3.83;;;7.70;99.90;;;;;;5095612;28;20244;-51
2023/10/17 04:27:19;;;;;;;5.43;3.80;;;7.70;99.90;;;;;;5095266;28;20411;-51
2023/10/17 04:30:14;;;;;;;6.60;4.00;;;7.70;99.90;;;;;;5093585;28;20460;-50
2023/10/17 04:32:34;;;;;;;13.07;3.43;;;7.70;99.90;;;;;;5093309;28;20438;-50
2023/10/17 04:35:02;;;;;;;5.27;3.40;;;7.70;99.90;;;;;;5094056;28;20421;-50
2023/10/17 04:37:34;;;;;;;7.90;4.43;;;7.70;99.90;;;;;;5093927;28;20454;-49
2023/10/17 04:42:53;;;;;;;9.40;4.23;;;7.70;99.90;;;;;;5093927;28;20484;-50
2023/10/17 04:45:24;;;;;;;9.00;3.23;;;7.70;99.90;;;;;;5097569;28;20414;-50
2023/10/17 04:48:10;;;;;;;9.57;3.80;;;7.80;99.90;;;;;;5098144;28;20418;-50
2023/10/17 04:50:55;;;;;;;13.20;3.50;;;7.80;99.90;;;;;;5098136;28;20997;-51
2023/10/17 04:53:35;;;;;;;7.97;3.57;;;7.80;99.90;;;;;;5097810;28;20903;-50
2023/10/17 04:56:09;;;;;;;9.13;4.00;;;7.80;99.90;;;;;;5097753;28;20420;-50
2023/10/17 04:58:42;;;;;;;11.60;3.90;;;7.80;99.90;;;;;;5097216;28;20748;-50
2023/10/17 05:01:34;;;;;;;8.40;3.67;;;7.80;99.90;;;;;;5097367;28;20956;-50
2023/10/17 05:03:59;;;;;;;11.63;4.07;;;7.80;99.90;;;;;;5097718;28;20414;-50
2023/10/17 05:07:06;;;;;;;9.67;3.67;;;7.80;99.90;;;;;;5097851;28;20923;-50
2023/10/17 06:17:56;;;;;;;7.47;4.70;;;8.30;99.90;;;;;;5096162;28;20393;-51
2023/10/17 06:23:24;;;;;;;5.30;4.30;;;8.40;99.90;;;;;;5096161;28;20631;-51
2023/10/17 06:28:29;;;;;;;8.90;5.30;;;8.50;99.90;;;;;;5096226;28;20438;-51
2023/10/17 06:33:38;;;;;;;14.00;5.20;;;8.50;99.90;;;;;;5095728;28;20774;-51
2023/10/17 06:36:13;;;;;;;10.60;4.93;;;8.50;99.90;;;;;;5095909;28;20415;-51
2023/10/17 06:38:47;;;;;;;11.17;5.50;;;8.60;99.90;;;;;;5095391;28;20202;-51
2023/10/17 06:41:27;;;;;;;7.60;4.67;;;8.60;99.90;;;;;;5095748;28;20707;-51
2023/10/17 06:43:58;;;;;;;12.53;5.23;;;8.60;99.90;;;;;;5095165;28;20462;-51
2023/10/17 06:46:33;;;;;;;11.00;5.50;;;8.70;99.90;;;;;;5095569;28;20414;-51
2023/10/17 06:49:07;;;;;;;20.67;5.20;;;8.80;99.90;;;;;;5095581;28;20414;-51
2023/10/17 06:51:36;;;;;;;8.70;4.40;;;8.80;99.90;;;;;;5095448;28;20422;-52
2023/10/17 06:54:06;;;;;;;10.00;5.17;;;8.80;99.90;;;;;;5095324;28;20435;-50
2023/10/17 06:56:43;;;;;;;8.50;4.73;;;8.90;99.90;;;;;;5095199;28;20409;-50
2023/10/17 06:59:24;;;;;;;12.40;4.73;;;9.00;99.90;;;;;;5095306;28;20795;-50
2023/10/17 07:02:10;;;;;;;10.07;4.73;;;9.10;99.90;;;;;;5095433;28;20434;-50
2023/10/17 07:04:37;;;;;;;12.20;4.90;;;9.20;99.90;;;;;;5095710;28;20405;-50
2023/10/17 07:07:04;;;;;;;12.20;4.80;;;9.20;99.90;;;;;;5094263;28;20426;-51
2023/10/17 07:09:37;;;;;;;12.80;5.13;;;9.30;99.90;;;;;;5095376;28;20463;-50
2023/10/17 07:12:04;;;;;;;17.87;5.30;;;9.30;99.90;;;;;;5094890;28;20419;-50
2023/10/17 07:14:30;;;;;;;10.67;4.80;;;9.40;99.90;;;;;;5094663;28;20428;-51
2023/10/17 07:17:00;;;;;;;5.63;3.53;;;9.30;99.90;;;;;;5094986;28;20406;-51
2023/10/17 07:24:25;;;;;;;12.13;4.97;;;9.40;99.90;;;;;;5094914;28;20237;-51
2023/10/17 07:26:54;;;;;;;18.80;5.00;;;9.40;99.90;;;;;;5095025;28;20413;-50
2023/10/17 07:29:24;;;;;;;8.30;4.33;;;9.40;99.90;;;;;;5094656;28;20549;-50
2023/10/17 07:31:54;;;;;;;11.17;3.27;;;9.50;99.90;;;;;;5094184;28;20417;-50
2023/10/17 07:34:23;;;;;;;34.03;5.90;;;9.60;99.90;;;;;;5094036;28;20414;-51
2023/10/17 07:36:55;;;;;;;6.27;3.60;;;9.60;98.40;;;;;;5094207;28;20415;-51
2023/10/17 07:39:25;;;;;;;16.03;4.00;;;9.70;99.90;;;;;;5093956;28;20443;-50
2023/10/17 07:41:53;;;;;;;5.10;3.37;;;9.80;80.80;;;;;;5094176;28;20421;-50
2023/10/17 07:44:21;;;;;;;9.03;3.77;;;9.90;1.00;;;;;;5093797;28;20476;-51
2023/10/17 07:46:51;;;;;;;8.13;3.30;;;10.00;1.00;;;;;;5094066;28;20760;-50
2023/10/17 07:49:26;;;;;;;8.23;3.67;;;10.10;1.00;;;;;;5093924;28;20462;-51
2023/10/17 07:51:52;;;;;;;9.33;3.67;;;10.20;1.00;;;;;;5094195;28;20442;-51
2023/10/17 07:54:18;;;;;;;11.37;3.70;;;10.30;1.00;;;;;;5093963;28;20425;-51
2023/10/17 07:56:50;;;;;;;8.70;3.70;;;10.30;1.00;;;;;;5094355;28;20417;-51
2023/10/17 07:59:30;;;;;;;11.70;4.03;;;10.40;1.00;;;;;;5094690;28;20535;-51
2023/10/17 08:01:59;;;;;;;13.97;4.40;;;10.50;1.00;;;;;;5093829;28;20883;-51
2023/10/17 08:04:29;;;;;;;6.03;4.17;;;10.50;1.00;;;;;;5093801;28;20455;-51
2023/10/17 08:06:56;;;;;;;8.70;4.43;;;10.50;1.00;;;;;;5093910;28;20414;-51
2023/10/17 08:11:52;;;;;;;16.07;4.97;;;10.60;1.00;;;;;;5093910;28;20464;-51
2023/10/17 08:14:40;;;;;;;9.87;4.87;;;10.60;1.00;;;;;;5093729;28;20422;-51
2023/10/17 08:17:08;;;;;;;14.87;5.53;;;10.60;99.90;;;;;;5093677;28;20414;-51
2023/10/17 08:22:18;;;;;;;11.87;6.07;;;10.80;99.90;;;;;;5093719;28;20394;-49
2023/10/17 08:24:51;;;;;;;11.67;5.57;;;10.80;99.90;;;;;;5093311;28;20469;-49
2023/10/17 08:30:14;;;;;;;15.53;5.50;;;10.80;99.90;;;;;;5093917;28;20473;-50
2023/10/17 08:32:47;;;;;;;8.30;5.10;;;10.90;99.90;;;;;;5093280;28;20455;-49
2023/10/17 08:35:25;;;;;;;8.70;4.80;;;11.00;68.20;;;;;;5093562;28;20422;-50
2023/10/17 08:37:52;;;;;;;7.90;4.87;;;11.10;54.50;;;;;;5093836;28;20411;-51
2023/10/17 08:43:11;;;;;;;11.60;4.57;;;11.30;1.60;;;;;;5093521;28;20875;-49
2023/10/17 08:45:41;;;;;;;11.87;5.17;;;11.40;1.00;;;;;;5093356;28;20421;-49
2023/10/17 08:48:09;;;;;;;10.43;4.60;;;11.50;1.00;;;;;;5093428;28;20413;-49
2023/10/17 08:50:38;;;;;;;6.70;3.80;;;11.60;1.80;;;;;;5093254;28;20461;-52
2023/10/17 08:55:42;;;;;;;10.20;4.07;;;11.80;1.00;;;;;;5093453;28;20425;-49
2023/10/17 08:58:08;;;;;;;5.47;3.20;;;11.90;1.00;;;;;;5093280;28;20906;-49
2023/10/17 09:01:20;;;;;;;6.83;2.70;;;12.10;1.00;;;;;;5093016;28;20236;-49
2023/10/17 09:03:35;;;;;;;6.77;2.83;;;12.20;1.00;;;;;;5087174;28;20260;-50
2023/10/17 09:11:08;;;;;;;8.47;2.77;;;12.30;1.00;;;;;;5093215;28;20460;-51
2023/10/17 09:16:15;;;;;;;14.67;2.70;;;12.50;1.00;;;;;;5093257;28;20401;-50
2023/10/17 09:18:48;;;;;;;6.30;2.57;;;12.50;1.00;;;;;;5093225;28;20410;-50
2023/10/17 09:21:15;;;;;;;11.17;2.83;;;12.50;1.00;;;;;;5093200;28;20415;-50
2023/10/17 09:23:45;;;;;;;8.53;2.60;;;12.60;1.00;;;;;;5093064;28;20476;-50
2023/10/17 09:26:12;;;;;;;8.03;3.00;;;12.70;1.00;;;;;;5092739;28;20548;-50
2023/10/17 09:28:39;;;;;;;8.17;2.90;;;12.60;1.00;;;;;;5092996;28;20503;-52
2023/10/17 09:31:06;;;;;;;6.20;2.43;;;12.60;1.00;;;;;;5095592;28;20461;-50
2023/10/17 09:33:34;;;;;;;6.27;2.47;;;12.70;1.00;;;;;;5096263;28;20935;-51
2023/10/17 09:36:04;;;;;;;6.50;2.57;;;12.80;1.00;;;;;;5096470;28;20419;-51
2023/10/17 09:38:34;;;;;;;6.60;2.40;;;12.90;1.00;;;;;;5097029;28;20468;-51
2023/10/17 09:41:01;;;;;;;5.83;2.90;;;12.90;1.00;;;;;;5096291;28;20506;-52
2023/10/17 09:43:29;;;;;;;4.27;1.83;;;13.10;1.00;;;;;;5096126;28;20497;-51
2023/10/17 09:46:02;;;;;;;2.93;1.60;;;13.20;1.00;;;;;;5096072;28;20964;-52
2023/10/17 09:48:37;;;;;;;4.70;1.77;;;13.30;1.00;;;;;;5096360;28;20418;-52
2023/10/17 09:51:03;;;;;;;7.60;1.63;;;13.40;1.00;;;;;;5096260;28;20460;-52
2023/10/17 09:53:34;;;;;;;5.57;1.87;;;13.40;1.00;;;;;;5096191;28;20467;-53
2023/10/17 09:56:27;;;;;;;6.20;1.90;;;13.40;1.00;;;;;;5095897;28;20422;-54
2023/10/17 09:58:55;;;;;;;4.00;1.80;;;13.50;1.00;;;;;;5095851;28;20415;-53
2023/10/17 10:01:23;;;;;;;4.70;2.03;;;13.60;1.00;;;;;;5095732;28;20451;-53
2023/10/17 10:03:53;;;;;;;6.60;1.90;;;13.70;1.00;;;;;;5095989;28;20430;-53
2023/10/17 10:06:30;;;;;;;5.30;1.93;;;13.60;1.00;;;;;;5095787;28;20510;-52
2023/10/17 10:09:17;;;;;;;4.60;1.87;;;13.60;1.00;;;;;;5095889;28;20414;-53
2023/10/17 10:11:49;;;;;;;3.00;1.77;;;13.50;1.00;;;;;;5095571;28;20420;-53
2023/10/17 10:14:36;;;;;;;5.50;1.90;;;13.50;1.00;;;;;;5095472;28;20953;-51
2023/10/17 10:17:03;;;;;;;3.43;1.80;;;13.50;1.00;;;;;;5095416;28;20442;-54
2023/10/17 10:19:41;;;;;;;4.70;1.97;;;13.50;1.00;;;;;;5095687;28;20504;-53
2023/10/17 10:22:14;;;;;;;3.60;1.77;;;13.60;1.00;;;;;;5095689;28;20453;-52
2023/10/17 10:24:41;;;;;;;5.10;1.70;;;13.60;1.00;;;;;;5095572;28;20482;-54
2023/10/17 10:27:15;;;;;;;6.10;1.57;;;13.70;1.00;;;;;;5095444;28;20514;-54
2023/10/17 10:29:55;;;;;;;5.80;1.70;;;13.60;1.00;;;;;;5095442;28;20455;-54
2023/10/17 10:32:37;;;;;;;5.77;1.60;;;13.70;1.00;;;;;;5095485;28;20804;-53
2023/10/17 10:35:05;;;;;;;3.80;1.60;;;13.80;1.00;;;;;;5095142;28;20826;-54
2023/10/17 10:37:32;;;;;;;5.50;2.10;;;14.00;1.00;;;;;;5095036;28;20459;-54
2023/10/17 10:40:16;;;;;;;4.20;1.63;;;14.00;1.00;;;;;;5095317;28;20426;-54
2023/10/17 10:42:47;;;;;;;7.23;2.27;;;14.20;1.00;;;;;;5094245;28;20400;-54
2023/10/17 10:45:25;;;;;;;4.93;2.60;;;14.40;1.00;;;;;;5095255;28;20412;-54
2023/10/17 10:48:01;;;;;;;5.43;2.30;;;14.70;1.00;;;;;;5095161;28;20426;-55
2023/10/17 10:50:31;;;;;;;8.03;2.53;;;14.90;1.00;;;;;;5095067;28;20462;-53
2023/10/17 10:53:03;;;;;;;6.70;3.00;;;15.20;1.00;;;;;;5094853;28;20421;-54
2023/10/17 10:55:32;;;;;;;6.73;2.20;;;15.50;1.00;;;;;;5094760;28;20420;-52
2023/10/17 10:58:00;;;;;;;4.13;2.20;;;15.70;1.00;;;;;;5094955;28;20523;-54
2023/10/17 11:00:26;;;;;;;4.60;1.90;;;16.10;1.00;;;;;;5094604;28;20908;-54
2023/10/17 11:02:51;;;;;;;3.23;1.93;;;16.40;1.00;;;;;;5094760;28;20456;-55
2023/10/17 11:05:17;;;;;;;6.80;2.37;;;17.00;1.00;;;;;;5094783;28;20211;-54
2023/10/17 11:07:44;;;;;;;4.90;2.10;;;17.50;1.00;;;;;;5094822;28;20185;-54
2023/10/17 11:10:11;;;;;;;7.10;2.43;;;18.30;1.00;;;;;;5094664;28;20596;-53
2023/10/17 11:12:38;;;;;;;4.67;2.30;;;18.70;1.00;;;;;;5094643;28;20910;-54
2023/10/17 11:15:14;;;;;;;5.57;2.17;;;19.00;1.00;;;;;;5094643;28;20426;-54
2023/10/17 11:17:43;;;;;;;4.00;1.50;;;19.40;1.00;;;;;;5094652;28;20764;-54
2023/10/17 11:20:17;;;;;;;2.77;1.67;;;19.80;1.00;;;;;;5094326;28;20931;-54
2023/10/17 11:22:44;;;;;;;4.50;1.40;;;19.90;1.00;;;;;;5094585;28;20765;-54
2023/10/17 11:25:15;;;;;;;4.20;1.80;;;19.50;1.00;;;;;;5094363;28;20950;-54
2023/10/17 11:27:49;;;;;;;4.50;1.80;;;19.30;1.00;;;;;;5094658;28;20411;-55
2023/10/17 11:30:19;;;;;;;4.40;1.87;;;19.50;1.00;;;;;;5094333;28;20450;-54
2023/10/17 11:32:45;;;;;;;8.53;1.67;;;20.30;1.00;;;;;;5094642;28;20515;-54
2023/10/17 11:35:19;;;;;;;3.30;1.60;;;21.30;1.00;;;;;;5094426;28;20477;-55
2023/10/17 11:37:47;;;;;;;3.43;1.40;;;21.20;1.00;;;;;;5094047;28;20170;-54
2023/10/17 11:40:39;;;;;;;2.07;1.43;;;21.30;1.00;;;;;;5094200;28;20431;-54
2023/10/17 11:43:28;;;;;;;2.30;1.27;;;22.00;1.00;;;;;;5094197;28;20878;-54
2023/10/17 11:45:54;;;;;;;3.87;1.27;;;23.10;1.00;;;;;;5093850;28;20396;-55
2023/10/17 11:48:27;;;;;;;3.10;1.43;;;23.50;1.00;;;;;;5094086;28;20485;-55
2023/10/17 11:51:05;;;;;;;3.43;1.40;;;23.80;99.90;;;;;;5093762;28;20957;-55
2023/10/17 11:53:32;;;;;;;6.73;1.67;;;23.60;99.90;;;;;;5093375;28;20943;-55
2023/10/17 11:55:58;;;;;;;5.53;1.37;;;23.80;99.90;;;;;;5093966;28;20832;-54
2023/10/17 11:58:25;;;;;;;3.33;1.50;;;23.90;99.90;;;;;;5093620;28;20522;-52
2023/10/17 12:00:51;;;;;;;2.30;1.20;;;24.40;99.90;;;;;;5093617;28;20958;-54
2023/10/17 12:03:20;;;;;;;2.00;1.20;;;24.70;99.90;;;;;;5093865;28;20422;-52
2023/10/17 12:05:46;;;;;;;4.60;1.40;;;24.90;99.90;;;;;;5093818;28;20426;-53
2023/10/17 12:08:22;;;;;;;2.37;1.40;;;25.00;99.90;;;;;;5093797;28;20407;-53
2023/10/17 12:10:49;;;;;;;1.93;1.37;;;24.80;99.90;;;;;;5094073;28;20550;-53
2023/10/17 12:13:17;;;;;;;2.60;1.30;;;24.90;99.90;;;;;;5094058;28;20424;-53
2023/10/17 12:15:44;;;;;;;4.97;1.53;;;25.20;99.90;;;;;;5094149;28;20508;-55
2023/10/17 12:18:10;;;;;;;3.73;2.30;;;25.20;99.90;;;;;;5094515;28;20419;-56
2023/10/17 12:20:40;;;;;;;5.97;1.80;;;25.20;99.90;;;;;;5093969;28;20780;-54
2023/10/17 12:23:09;;;;;;;5.20;1.67;;;25.80;99.90;;;;;;5092705;28;20173;-54
2023/10/17 12:25:36;;;;;;;6.43;1.93;;;25.60;99.90;;;;;;5093786;28;20603;-54
2023/10/17 12:28:03;;;;;;;3.30;1.27;;;25.00;99.90;;;;;;5094387;28;20409;-55
2023/10/17 12:30:35;;;;;;;3.50;1.60;;;24.20;99.90;;;;;;5093522;28;20462;-55
2023/10/17 12:33:01;;;;;;;3.27;1.63;;;23.20;99.90;;;;;;5093879;28;20792;-55
2023/10/17 12:35:27;;;;;;;6.03;1.60;;;23.10;99.90;;;;;;5093598;28;20422;-55
2023/10/17 12:37:57;;;;;;;3.20;1.40;;;23.00;99.90;;;;;;5093389;28;20537;-55
2023/10/17 12:40:24;;;;;;;3.57;1.53;;;22.50;99.90;;;;;;5094486;28;20412;-55
2023/10/17 12:42:51;;;;;;;4.80;1.23;;;22.20;99.90;;;;;;5093991;28;20459;-56
2023/10/17 12:45:17;;;;;;;3.73;1.50;;;21.90;99.90;;;;;;5093501;28;20422;-56
2023/10/17 12:47:43;;;;;;;5.03;1.57;;;21.30;99.90;;;;;;5093748;28;20414;-55
2023/10/17 12:50:14;;;;;;;3.80;1.10;;;21.40;99.90;;;;;;5093653;28;20470;-56
2023/10/17 12:52:40;;;;;;;6.27;1.73;;;21.20;99.90;;;;;;5093434;28;20424;-56
2023/10/17 12:55:07;;;;;;;3.83;1.50;;;21.20;99.90;;;;;;5093621;28;20907;-57
2023/10/17 12:57:33;;;;;;;2.50;1.40;;;21.00;99.90;;;;;;5094114;28;20538;-57
2023/10/17 12:59:59;;;;;;;1.63;1.07;;;19.90;99.90;;;;;;5094148;28;20442;-56
2023/10/17 13:02:29;;;;;;;6.67;1.10;;;19.10;99.90;;;;;;5093901;28;20404;-56
2023/10/17 13:04:55;;;;;;;4.50;1.60;;;18.90;99.90;;;;;;5094795;28;20181;-57
2023/10/17 13:07:23;;;;;;;3.47;1.73;;;18.60;99.90;;;;;;5097807;28;20415;-56
2023/10/17 13:09:49;;;;;;;3.50;1.37;;;18.20;99.90;;;;;;5097222;28;20938;-56
2023/10/17 13:12:14;;;;;;;3.93;1.30;;;17.90;99.90;;;;;;5097308;28;20412;-56
2023/10/17 13:14:40;;;;;;;4.17;1.47;;;17.50;99.90;;;;;;5097697;28;20173;-56
2023/10/17 13:17:09;;;;;;;4.30;1.27;;;17.10;99.90;;;;;;5097361;28;20534;-56
2023/10/17 13:19:40;;;;;;;3.37;1.10;;;16.80;99.90;;;;;;5097553;28;20199;-57
2023/10/17 13:22:08;;;;;;;1.77;1.30;;;16.40;99.90;;;;;;5097456;28;20410;-56
2023/10/17 13:24:34;;;;;;;3.20;1.20;;;16.10;1.00;;;;;;5097308;28;20882;-57
2023/10/17 13:27:00;;;;;;;1.87;1.00;;;15.80;1.00;;;;;;5097112;28;20440;-55
2023/10/17 13:29:26;;;;;;;3.07;1.00;;;15.40;1.00;;;;;;5097025;28;21028;-56
2023/10/17 13:31:55;;;;;;;4.10;1.00;;;15.10;1.00;;;;;;5095647;28;20444;-56
2023/10/17 13:34:22;;;;;;;1.07;0.80;;;14.90;1.00;;;;;;5097290;28;20424;-56
2023/10/17 13:36:48;;;;;;;1.30;0.80;;;14.80;1.00;;;;;;5096591;28;20499;-59
2023/10/17 13:39:13;;;;;;;1.90;0.90;;;14.70;1.00;;;;;;5096862;28;20453;-56
2023/10/17 13:41:39;;;;;;;2.50;1.00;;;14.60;1.00;;;;;;5097012;28;20703;-55
2023/10/17 13:44:05;;;;;;;6.70;0.93;;;14.50;1.00;;;;;;5096798;28;20224;-56
2023/10/17 13:46:32;;;;;;;2.70;1.10;;;14.60;1.00;;;;;;5096996;28;20178;-55
2023/10/17 13:48:58;;;;;;;2.60;1.07;;;14.70;1.00;;;;;;5096504;28;20469;-56
2023/10/17 13:51:24;;;;;;;4.63;1.10;;;14.80;1.00;;;;;;5096308;28;20464;-56
2023/10/17 13:53:50;;;;;;;1.90;1.10;;;14.80;1.00;;;;;;5096426;28;20218;-56
2023/10/17 13:56:20;;;;;;;2.77;1.10;;;15.00;1.00;;;;;;5096473;28;20206;-56
2023/10/17 13:58:50;;;;;;;3.13;1.00;;;14.90;1.00;;;;;;5096218;28;20439;-55
2023/10/17 14:01:27;;;;;;;1.57;1.10;;;14.70;1.00;;;;;;5096098;28;20424;-55
2023/10/17 14:03:55;;;;;;;1.93;1.23;;;14.60;1.00;;;;;;5095713;28;20449;-56
2023/10/17 14:06:21;;;;;;;5.73;1.10;;;15.20;1.00;;;;;;5095777;28;20805;-55
2023/10/17 14:08:47;;;;;;;3.00;1.00;;;16.30;1.00;;;;;;5095834;28;20410;-56
2023/10/17 14:11:19;;;;;;;2.50;0.90;;;17.40;99.90;;;;;;5095573;28;20496;-56
2023/10/17 14:13:46;;;;;;;2.17;0.90;;;18.30;99.90;;;;;;5095923;28;20481;-56
2023/10/17 14:16:12;;;;;;;1.87;1.03;;;18.90;99.90;;;;;;5095592;28;20422;-56
2023/10/17 14:18:42;;;;;;;1.93;1.07;;;19.10;99.90;;;;;;5095746;28;20899;-55
2023/10/17 14:21:34;;;;;;;1.37;0.90;;;18.90;99.90;;;;;;5095961;28;20199;-57
2023/10/17 14:24:00;;;;;;;3.93;1.20;;;18.40;99.90;;;;;;5095500;28;20426;-56
2023/10/17 14:26:29;;;;;;;4.47;1.00;;;17.40;99.90;;;;;;5095634;28;20414;-56
2023/10/17 14:28:56;;;;;;;1.23;1.00;;;16.30;99.90;;;;;;5095557;28;20448;-55
2023/10/17 14:31:24;;;;;;;3.43;1.13;;;15.40;99.90;;;;;;5095502;28;20552;-57
2023/10/17 14:33:51;;;;;;;1.60;0.97;;;14.70;99.90;;;;;;5095540;28;20788;-56
2023/10/17 14:36:18;;;;;;;6.33;1.33;;;14.00;99.90;;;;;;5095088;28;20411;-56
2023/10/17 14:38:44;;;;;;;2.57;1.10;;;13.70;99.90;;;;;;5095387;28;20416;-57
2023/10/17 14:41:13;;;;;;;2.63;1.17;;;13.30;1.00;;;;;;5095154;28;20527;-56
2023/10/17 14:43:49;;;;;;;4.50;1.10;;;13.10;1.00;;;;;;5094985;28;20918;-55
2023/10/17 14:46:16;;;;;;;3.07;1.10;;;12.90;1.00;;;;;;5095261;28;20418;-55
2023/10/17 14:48:42;;;;;;;4.20;1.10;;;12.70;1.00;;;;;;5095233;28;20403;-55
2023/10/17 14:51:08;;;;;;;3.53;1.20;;;12.50;1.00;;;;;;5095132;28;20489;-56
2023/10/17 14:53:34;;;;;;;1.43;1.10;;;12.40;1.00;;;;;;5095149;28;20451;-55
2023/10/17 14:56:04;;;;;;;3.67;1.10;;;12.20;1.00;;;;;;5095143;28;20873;-55
2023/10/17 14:58:31;;;;;;;2.20;1.20;;;12.10;1.00;;;;;;5094816;28;20621;-55
2023/10/17 15:00:56;;;;;;;3.00;1.20;;;12.00;1.00;;;;;;5094945;28;20411;-55
2023/10/17 15:03:22;;;;;;;3.33;1.33;;;11.90;1.00;;;;;;5094919;28;20941;-54
2023/10/17 15:05:48;;;;;;;11.13;5.30;;;11.90;1.00;;;;;;5094655;28;20711;-54
2023/10/17 15:08:14;;;;;;;13.97;6.63;;;11.80;1.00;;;;;;5094766;28;20208;-55
2023/10/17 15:10:40;;;;;;;7.60;5.33;;;11.80;1.00;;;;;;5094911;28;20227;-54